OROVILLE DAM (ORO)

Elevation: 900' · FEATHER R basin · Operator: CA Dept of Water Resources/O & M


Station comments:

12/31/2014Sensor for reservoir elevation has been repaired. Data from 12/30/14, 0900 is valid.
12/30/2014Hourly elevation and storage data is invalid since 12/25/2014. Data is being flagged.


Provisional data, subject to change.
Query executed Monday at 4:04:56   clock

Select a sensor type for a plot of data.
Note: Reservoir Flows are daily averages.

Earlier

Date RES ELE    STORAGE    RES CHG    TOC STO    ABV TOC    OUTFLOW    INFLOW    EVAP    FNF    PPT INC    RAIN    PPTINC4   
 FEET   AF   AF   AF   AF   CFS   CFS   CFS   CFS   INCHES   INCHES   INCHES  
12/28/2014 709.18 e 1326038 e 7356 2858143 -1537032 600 4317 8 5231 0.00 19.20 0.00
12/29/2014 710.02 e 1332706 e 6668 2872480 -1539774 473 3863 28 4343 0.00 19.20 0.00
12/30/2014 711.21 e 1342189 e 9483 2886446 -1544257 0 4788 6 4455 e 0.00 19.20 0.00
12/31/2014 711.81 1346988 4799 2899992 r -1553004 r 597 3013 36 4255 e 0.00 19.20 0.00
01/01/2015 712.39 1351639 4651 2912016 -1560377 657 3070 28 3230 0.00 19.20 0.00
01/02/2015 712.96 1356221 4582 2924268 -1568047 663 2991 18 3285 0.00 19.20 0.00
01/03/2015 713.46 1360248 4027 2936386 -1576138 657 2736 8 2923 0.00 19.20 0.00
01/04/2015 713.94 1364122 3874 2948258 -1584136 664 2543 8 2882 0.00 19.20 0.00
01/05/2015 714.43 1368084 3962 2959715 -1591631 654 2654 3 3376 0.00 19.20 0.00
01/06/2015 714.87 1371649 3565 2970829 -1599180 661 2463 5 2982 0.00 19.20 0.00
01/07/2015 715.25 1374733 3084 2981844 -1607111 655 2257 5 2646 0.00 19.20 0.00
01/08/2015 715.79 1379123 4390 2992528 -1613405 136 2316 8 3134 0.00 19.20 0.00
01/09/2015 716.14 1381974 2852 3002893 -1620918 627 2113 8 2689 0.00 19.20 0.00
01/10/2015 716.56 1385401 3426 3012946 -1627545 654 2387 5 2768 e 0.00 19.20 0.00
01/11/2015 716.84 1387688 2287 3022698 -1635009 654 1771 5 2768 e 0.00 19.20 0.00
01/12/2015 717.20 1390633 2945 3032157 -1641524 654 2169 30 2811 0.00 19.20 0.00
01/13/2015 717.55 1393500 2867 3041332 -1647832 652 2156 18 2643 0.00 19.20 0.00
01/14/2015 717.92 1396535 3035 3050232 -1653697 560 2088 38 2765 0.00 19.20 0.00
01/15/2015 718.27 1399411 2876 3058865 -1659454 558 2059 10 2385 0.00 19.20 0.00
01/16/2015 718.66 1402619 3208 3061064 -1658445 559 2182 5 2576 0.04 19.24 0.00
01/17/2015 718.95 1405009 2390 3069208 -1664198 558 1721 0 3025 e 0.00 19.24 0.09
01/18/2015 719.34 1408227 3218 3077271 -1669044 558 2227 5 3214 0.00 19.24 0.00
01/19/2015 719.84 1412359 4132 3085093 -1672734 558 2604 5 3025 e 0.00 19.24 0.00
01/20/2015 720.27 1415920 3561 3092617 -1676697 557 2357 5 2989 0.00 19.24 0.00
01/21/2015 720.62 1418823 2903 3099726 -1680903 557 2109 5 2669 0.00 19.24 0.00
01/22/2015 720.98 1421813 2990 3106874 -1685061 558 2073 8 -- 0.00 19.24 0.00
01/23/2015 721.36 1424974 3161 3113808 -1688834 556 2110 3 -- 0.00 19.24 0.00
01/24/2015 721.64 1427306 2332 3120280 -1692975 557 1780 5 -- 0.00 19.24 0.00
01/25/2015 721.99 1430225 2919 3126812 -- 555 1948 5 -- 0.00 -- 0.00
01/26/2015 -- -- -- -- -- -- -- -- -- -- -- --

Later | Latest

Warning! This data is preliminary and subject to revision.

Show ORO Map | Plot ORO Data | 1 Month ORO Data | Real-Time ORO Data | ORO Info